createdAt,value
2019-03-15T00:01:43.582Z,2.30
2019-03-15T00:04:12.910Z,2.02
2019-03-15T00:06:42.258Z,2.40
2019-03-15T00:09:11.590Z,1.60
2019-03-15T00:11:40.918Z,1.62
2019-03-15T00:14:10.234Z,1.80
2019-03-15T00:16:39.568Z,1.40
2019-03-15T00:19:08.966Z,1.32
2019-03-15T00:21:38.363Z,2.15
2019-03-15T00:24:07.679Z,2.00
2019-03-15T00:26:37.013Z,2.35
2019-03-15T00:29:06.407Z,2.05
2019-03-15T00:31:35.738Z,2.22
2019-03-15T00:34:05.067Z,4.75
2019-03-15T00:36:34.383Z,3.08
2019-03-15T00:39:04.506Z,2.00
2019-03-15T00:41:33.826Z,1.75
2019-03-15T00:44:03.230Z,1.92
2019-03-15T00:46:32.550Z,2.67
2019-03-15T00:49:01.884Z,1.50
2019-03-15T00:51:31.274Z,1.95
2019-03-15T00:54:00.663Z,2.10
2019-03-15T00:56:30.049Z,1.75
2019-03-15T00:58:59.372Z,1.37
2019-03-15T01:01:28.767Z,1.90
2019-03-15T01:03:58.089Z,1.20
2019-03-15T01:06:27.431Z,1.67
2019-03-15T01:08:56.751Z,1.90
2019-03-15T01:11:26.074Z,1.40
2019-03-15T01:13:55.411Z,1.85
2019-03-15T01:16:24.748Z,1.32
2019-03-15T01:18:54.139Z,1.95
2019-03-15T01:21:23.459Z,1.32
2019-03-15T01:23:52.859Z,1.00
2019-03-15T01:26:22.178Z,1.25
2019-03-15T01:28:51.519Z,1.60
2019-03-15T01:31:20.906Z,11.28
2019-03-15T01:33:50.229Z,3.80
2019-03-15T01:36:19.562Z,5.45
2019-03-15T01:38:48.896Z,9.90
2019-03-15T01:41:18.214Z,3.25
2019-03-15T01:43:47.533Z,1.60
2019-03-15T01:46:16.872Z,2.22
2019-03-15T01:48:46.492Z,1.65
2019-03-15T01:51:15.860Z,0.90
2019-03-15T01:53:45.188Z,2.10
2019-03-15T01:56:14.507Z,1.32
2019-03-15T01:58:43.822Z,1.30
2019-03-15T02:01:13.150Z,3.45
2019-03-15T02:03:42.487Z,3.33
2019-03-15T02:06:11.831Z,6.92
2019-03-15T02:08:41.158Z,3.50
2019-03-15T02:11:10.485Z,2.05
2019-03-15T02:13:39.828Z,3.27
2019-03-15T02:16:09.155Z,2.45
2019-03-15T02:18:38.561Z,5.40
2019-03-15T02:21:07.891Z,3.60
2019-03-15T02:23:37.222Z,3.15
2019-03-15T02:26:06.607Z,4.20
2019-03-15T02:28:35.957Z,3.33
2019-03-15T02:31:05.283Z,1.75
2019-03-15T02:33:34.630Z,2.42
2019-03-15T02:36:04.022Z,1.35
2019-03-15T02:38:33.427Z,2.12
2019-03-15T02:41:02.842Z,2.05
2019-03-15T02:43:32.223Z,1.27
2019-03-15T02:46:01.557Z,1.47
2019-03-15T02:48:30.892Z,2.05
2019-03-15T02:51:00.271Z,2.12
2019-03-15T02:53:29.603Z,2.30
2019-03-15T02:55:58.991Z,3.35
2019-03-15T02:58:28.385Z,2.25
2019-03-15T03:00:57.772Z,5.30
2019-03-15T03:03:27.093Z,3.87
2019-03-15T03:05:56.407Z,3.60
2019-03-15T03:08:25.726Z,9.55
2019-03-15T03:10:56.008Z,5.60
2019-03-15T03:13:25.640Z,6.62
2019-03-15T03:15:55.028Z,11.63
2019-03-15T03:18:24.358Z,12.10
2019-03-15T03:20:53.685Z,5.90
2019-03-15T03:23:23.018Z,2.52
2019-03-15T03:25:52.411Z,3.00
2019-03-15T03:28:21.735Z,3.15
2019-03-15T03:30:51.056Z,2.30
2019-03-15T03:33:20.457Z,4.00
2019-03-15T03:35:49.902Z,4.40
2019-03-15T03:38:19.235Z,8.90
2019-03-15T03:40:48.626Z,21.82
2019-03-15T03:43:17.973Z,16.62
2019-03-15T03:45:47.283Z,5.53
2019-03-15T03:48:16.618Z,10.45
2019-03-15T03:50:45.934Z,4.70
2019-03-15T03:53:15.259Z,4.45
2019-03-15T03:55:44.585Z,6.72
2019-03-15T03:58:14.074Z,5.33
2019-03-15T04:00:43.393Z,3.33
2019-03-15T04:03:12.703Z,5.10
2019-03-15T04:05:42.022Z,3.00
2019-03-15T04:08:11.581Z,5.03
2019-03-15T04:10:40.941Z,3.65
2019-03-15T04:13:10.332Z,4.40
2019-03-15T04:15:39.750Z,4.17
2019-03-15T04:18:09.079Z,4.83
2019-03-15T04:20:38.402Z,5.58
2019-03-15T04:23:07.723Z,4.65
2019-03-15T04:25:38.082Z,3.75
2019-03-15T04:28:08.088Z,3.40
2019-03-15T04:30:37.484Z,4.70
2019-03-15T04:33:06.824Z,4.47
2019-03-15T04:35:36.146Z,3.40
2019-03-15T04:38:05.514Z,4.37
2019-03-15T04:40:34.867Z,4.97
2019-03-15T04:43:04.282Z,5.70
2019-03-15T04:45:33.605Z,4.33
2019-03-15T04:48:02.926Z,4.58
2019-03-15T04:50:32.262Z,10.03
2019-03-15T04:53:01.591Z,6.12
2019-03-15T04:55:30.903Z,6.83
2019-03-15T04:58:00.300Z,5.92
2019-03-15T05:00:29.677Z,9.65
2019-03-15T05:02:58.994Z,4.42
2019-03-15T05:05:28.339Z,3.95
2019-03-15T05:07:57.665Z,9.78
2019-03-15T05:10:26.982Z,6.78
2019-03-15T05:12:56.321Z,4.67
2019-03-15T05:15:25.642Z,3.50
2019-03-15T05:17:54.969Z,4.87
2019-03-15T05:20:24.290Z,3.90
2019-03-15T05:22:53.614Z,3.58
2019-03-15T05:25:22.942Z,10.30
2019-03-15T05:27:52.278Z,4.00
2019-03-15T05:30:21.596Z,3.62
2019-03-15T05:32:50.998Z,6.70
2019-03-15T05:35:20.318Z,5.55
2019-03-15T05:37:49.650Z,5.47
2019-03-15T05:40:18.970Z,5.25
2019-03-15T05:42:48.398Z,4.72
2019-03-15T05:45:17.792Z,4.08
2019-03-15T05:47:47.200Z,5.00
2019-03-15T05:50:16.518Z,3.62
2019-03-15T05:52:45.839Z,5.22
2019-03-15T05:55:15.165Z,4.17
2019-03-15T05:57:44.486Z,4.85
2019-03-15T06:00:13.926Z,3.30
2019-03-15T06:02:43.316Z,4.45
2019-03-15T06:05:12.909Z,4.42
2019-03-15T06:07:42.303Z,2.77
2019-03-15T06:10:11.902Z,2.25
2019-03-15T06:12:41.218Z,3.33
2019-03-15T06:15:10.649Z,2.85
2019-03-15T06:17:39.967Z,2.95
2019-03-15T06:20:09.455Z,3.17
2019-03-15T06:22:38.778Z,2.80
2019-03-15T06:25:08.130Z,5.10
2019-03-15T06:27:37.457Z,4.70
2019-03-15T06:30:07.005Z,3.83
2019-03-15T06:32:36.328Z,7.58
2019-03-15T06:35:06.141Z,4.58
2019-03-15T06:37:35.535Z,3.90
2019-03-15T06:40:05.493Z,4.22
2019-03-15T06:42:34.899Z,3.75
2019-03-15T06:45:04.977Z,3.95
2019-03-15T06:47:34.291Z,3.80
2019-03-15T06:50:03.767Z,14.75
2019-03-15T06:52:33.103Z,3.40
2019-03-15T06:55:05.323Z,2.92
2019-03-15T06:57:33.499Z,3.40
2019-03-15T07:00:03.838Z,3.30
2019-03-15T07:02:33.231Z,4.47
2019-03-15T07:05:02.626Z,3.83
2019-03-15T07:07:31.942Z,3.17
2019-03-15T07:10:01.259Z,3.00
2019-03-15T07:12:30.607Z,4.60
2019-03-15T07:14:59.937Z,4.50
2019-03-15T07:17:29.257Z,4.00
2019-03-15T07:19:58.680Z,3.80
2019-03-15T07:22:28.066Z,3.30
2019-03-15T07:24:57.395Z,4.22
2019-03-15T07:27:26.715Z,3.77
2019-03-15T07:29:56.035Z,3.17
2019-03-15T07:32:25.630Z,5.17
2019-03-15T07:34:54.951Z,2.98
2019-03-15T07:37:24.272Z,4.42
2019-03-15T07:39:53.594Z,17.82
2019-03-15T07:42:22.978Z,8.73
2019-03-15T07:44:52.324Z,15.65
2019-03-15T07:47:21.719Z,5.30
2019-03-15T07:49:51.038Z,7.05
2019-03-15T07:52:20.359Z,5.65
2019-03-15T07:54:49.682Z,6.85
2019-03-15T07:57:19.006Z,7.05
2019-03-15T07:59:48.326Z,7.92
2019-03-15T08:02:17.707Z,14.90
2019-03-15T08:04:47.038Z,4.78
2019-03-15T08:07:20.104Z,3.62
2019-03-15T08:09:51.056Z,3.47
2019-03-15T08:12:18.513Z,3.02
2019-03-15T08:14:47.827Z,4.47
2019-03-15T08:17:17.151Z,3.62
2019-03-15T08:19:46.558Z,3.00
2019-03-15T08:22:15.878Z,4.70
2019-03-15T08:24:51.318Z,3.17
2019-03-15T08:27:16.307Z,3.00
2019-03-15T08:29:45.678Z,4.42
2019-03-15T08:32:15.003Z,2.75
2019-03-15T08:34:44.337Z,2.50
2019-03-15T08:37:13.772Z,4.60
2019-03-15T08:43:05.867Z,2.77
2019-03-15T08:45:35.270Z,2.80
2019-03-15T08:48:04.608Z,2.55
2019-03-15T08:50:34.034Z,3.58
2019-03-15T08:53:03.372Z,4.80
2019-03-15T08:55:32.689Z,3.00
2019-03-15T08:58:13.328Z,2.90
2019-03-15T09:00:33.050Z,4.08
2019-03-15T09:03:02.374Z,2.98
2019-03-15T09:05:31.811Z,2.83
2019-03-15T09:08:01.151Z,2.50
2019-03-15T09:10:30.545Z,2.42
2019-03-15T09:12:59.999Z,2.92
2019-03-15T09:15:30.831Z,3.15
2019-03-15T09:18:00.394Z,2.50
2019-03-15T09:20:30.630Z,2.10
2019-03-15T09:26:22.166Z,2.55
2019-03-15T09:28:51.490Z,2.98
2019-03-15T09:31:20.843Z,2.42
2019-03-15T09:33:50.245Z,5.55
2019-03-15T09:36:19.564Z,2.27
2019-03-15T09:38:48.966Z,3.02
2019-03-15T09:41:31.059Z,2.70
2019-03-15T09:43:49.355Z,2.30
2019-03-15T09:46:18.693Z,2.47
2019-03-15T09:48:48.139Z,1.95
2019-03-15T09:51:17.462Z,2.08
2019-03-15T09:53:46.812Z,1.65
2019-03-15T09:56:16.137Z,1.95
2019-03-15T09:58:45.453Z,1.05
2019-03-15T10:01:15.259Z,1.67
2019-03-15T10:03:45.912Z,1.35
2019-03-15T10:06:19.307Z,0.98
2019-03-15T10:08:49.115Z,2.65
2019-03-15T10:11:18.438Z,1.00
2019-03-15T10:13:47.813Z,0.78
2019-03-15T10:16:17.243Z,1.12
2019-03-15T10:18:46.578Z,1.07
2019-03-15T10:21:15.979Z,0.90
2019-03-15T10:23:45.341Z,1.27
2019-03-15T10:26:15.086Z,0.95
2019-03-15T10:28:44.635Z,1.05
2019-03-15T10:31:14.030Z,1.05
2019-03-15T10:33:50.228Z,1.12
2019-03-15T10:36:14.412Z,0.93
2019-03-15T10:38:43.798Z,1.02
2019-03-15T10:41:13.198Z,0.90
2019-03-15T10:43:42.523Z,1.15
2019-03-15T10:46:11.851Z,1.12
2019-03-15T10:48:41.245Z,1.00
2019-03-15T10:51:10.570Z,1.00
2019-03-15T10:53:39.996Z,1.20
2019-03-15T10:56:10.230Z,0.95
2019-03-15T10:58:39.619Z,0.85
2019-03-15T11:01:08.949Z,0.70
2019-03-15T11:03:38.263Z,0.68
2019-03-15T11:06:07.621Z,0.60
2019-03-15T11:08:36.991Z,0.70
2019-03-15T11:11:06.391Z,0.80
2019-03-15T11:13:35.734Z,0.80
2019-03-15T11:16:05.131Z,0.85
2019-03-15T11:18:34.454Z,0.57
2019-03-15T11:21:03.775Z,0.80
2019-03-15T11:23:33.114Z,0.68
2019-03-15T11:26:13.006Z,1.02
2019-03-15T11:28:33.479Z,0.62
2019-03-15T11:31:02.818Z,0.60
2019-03-15T11:33:32.222Z,0.80
2019-03-15T11:36:01.556Z,0.72
2019-03-15T11:38:31.038Z,0.60
2019-03-15T11:41:00.401Z,0.70
2019-03-15T11:43:29.722Z,1.10
2019-03-15T11:45:59.129Z,0.50
2019-03-15T11:48:28.456Z,0.60
2019-03-15T11:50:57.790Z,8.90
2019-03-15T11:53:27.139Z,1.92
2019-03-15T11:55:56.534Z,0.50
2019-03-15T11:58:25.871Z,1.10
2019-03-15T12:00:55.198Z,0.70
2019-03-15T12:03:24.503Z,0.70
2019-03-15T12:05:53.854Z,1.10
2019-03-15T12:08:23.281Z,0.70
2019-03-15T12:10:52.603Z,0.60
2019-03-15T12:13:21.924Z,0.98
2019-03-15T12:15:51.259Z,1.05
2019-03-15T12:18:20.595Z,0.75
2019-03-15T12:20:49.984Z,0.98
2019-03-15T12:23:19.334Z,0.80
2019-03-15T12:25:48.667Z,0.65
2019-03-15T12:28:17.998Z,0.90
2019-03-15T12:30:47.603Z,0.75
2019-03-15T12:33:17.013Z,0.78
2019-03-15T12:35:46.390Z,0.70
2019-03-15T12:38:15.768Z,0.50
2019-03-15T12:40:45.354Z,0.98
2019-03-15T12:43:14.718Z,0.70
2019-03-15T12:45:44.062Z,0.70
2019-03-15T12:48:13.455Z,0.70
2019-03-15T12:50:42.779Z,1.00
2019-03-15T12:53:12.146Z,0.82
2019-03-15T12:55:41.475Z,0.60
2019-03-15T12:58:10.810Z,0.78
2019-03-15T13:00:40.194Z,0.55
2019-03-15T13:03:09.515Z,0.75
2019-03-15T13:05:38.926Z,0.60
2019-03-15T13:08:08.253Z,0.57
2019-03-15T13:10:37.975Z,0.70
2019-03-15T13:13:07.302Z,0.72
2019-03-15T13:15:36.707Z,0.90
2019-03-15T13:18:06.054Z,0.68
2019-03-15T13:20:35.674Z,0.88
2019-03-15T13:23:05.117Z,0.70
2019-03-15T13:25:34.437Z,0.75
2019-03-15T13:28:03.761Z,0.70
2019-03-15T13:30:33.098Z,0.80
2019-03-15T13:33:02.442Z,0.88
2019-03-15T13:35:31.771Z,0.82
2019-03-15T13:38:01.370Z,0.65
2019-03-15T13:40:30.712Z,0.53
2019-03-15T13:43:00.106Z,0.70
2019-03-15T13:45:29.480Z,0.60
2019-03-15T13:47:58.821Z,0.70
2019-03-15T13:50:28.142Z,0.70
2019-03-15T13:52:57.718Z,0.70
2019-03-15T13:55:27.111Z,0.80
2019-03-15T13:57:56.455Z,0.72
2019-03-15T14:00:25.775Z,0.85
2019-03-15T14:02:55.167Z,0.80
2019-03-15T14:05:24.579Z,0.70
2019-03-15T14:07:53.982Z,0.85
2019-03-15T14:10:23.321Z,0.50
2019-03-15T14:12:52.642Z,0.70
2019-03-15T14:15:22.019Z,0.70
2019-03-15T14:17:51.386Z,0.60
2019-03-15T14:20:20.880Z,0.80
2019-03-15T14:22:50.402Z,0.95
2019-03-15T14:25:19.854Z,0.98
2019-03-15T14:27:49.210Z,0.65
2019-03-15T14:30:18.616Z,0.78
2019-03-15T14:32:48.037Z,0.80
2019-03-15T14:35:17.453Z,0.60
2019-03-15T14:37:46.801Z,0.70
2019-03-15T14:40:16.357Z,0.70
2019-03-15T14:42:46.051Z,0.70
2019-03-15T14:45:15.447Z,0.53
2019-03-15T14:47:44.999Z,1.15
2019-03-15T14:50:14.937Z,0.70
2019-03-15T14:52:44.625Z,0.50
2019-03-15T14:55:13.982Z,0.70
2019-03-15T14:57:51.790Z,0.93
2019-03-15T15:00:15.348Z,1.30
2019-03-15T15:02:44.676Z,0.60
2019-03-15T15:05:14.398Z,0.90
2019-03-15T15:07:43.795Z,0.98
2019-03-15T15:10:13.450Z,0.70
2019-03-15T15:12:42.917Z,0.90
2019-03-15T15:15:12.769Z,0.60
2019-03-15T15:17:42.287Z,0.80
2019-03-15T15:20:11.893Z,0.90
2019-03-15T15:22:41.254Z,0.62
2019-03-15T15:25:10.634Z,0.50
2019-03-15T15:27:39.968Z,1.00
2019-03-15T15:30:09.767Z,0.75
2019-03-15T15:32:39.112Z,1.60
2019-03-15T15:35:08.606Z,0.85
2019-03-15T15:37:38.014Z,1.10
2019-03-15T15:40:09.132Z,1.37
2019-03-15T15:42:38.550Z,1.02
2019-03-15T15:45:08.304Z,0.90
2019-03-15T15:47:37.708Z,1.40
2019-03-15T15:50:07.220Z,0.90
2019-03-15T15:52:36.551Z,0.90
2019-03-15T15:55:06.047Z,0.82
2019-03-15T15:57:35.366Z,1.37
2019-03-15T16:00:05.256Z,0.85
2019-03-15T16:02:34.583Z,0.90
2019-03-15T16:05:04.242Z,1.42
2019-03-15T16:07:33.577Z,1.42
2019-03-15T16:10:02.923Z,1.15
2019-03-15T16:12:32.467Z,0.80
2019-03-15T16:15:01.819Z,1.00
2019-03-15T16:17:31.360Z,1.32
2019-03-15T16:20:00.699Z,8.25
2019-03-15T16:22:30.364Z,2.92
2019-03-15T16:24:59.790Z,1.72
2019-03-15T16:27:29.108Z,2.00
2019-03-15T16:29:58.533Z,2.35
2019-03-15T16:32:27.866Z,9.05
2019-03-15T16:34:57.219Z,2.65
2019-03-15T16:37:26.622Z,1.77
2019-03-15T16:39:56.527Z,1.20
2019-03-15T16:42:26.818Z,1.30
2019-03-15T16:44:56.148Z,0.80
2019-03-15T16:47:26.023Z,1.20
2019-03-15T16:49:55.359Z,1.05
2019-03-15T16:52:24.688Z,1.37
2019-03-15T16:54:54.091Z,1.37
2019-03-15T16:57:23.426Z,1.30
2019-03-15T16:59:52.832Z,2.33
2019-03-15T17:02:22.240Z,1.40
2019-03-15T17:04:51.684Z,1.77
2019-03-15T17:07:21.017Z,1.70
2019-03-15T17:09:50.410Z,1.37
2019-03-15T17:12:19.825Z,1.50
2019-03-15T17:14:49.152Z,2.00
2019-03-15T17:17:18.487Z,1.52
2019-03-15T17:19:47.862Z,1.35
2019-03-15T17:22:17.256Z,2.00
2019-03-15T17:24:46.590Z,1.50
2019-03-15T17:27:15.926Z,1.67
2019-03-15T17:29:45.279Z,1.90
2019-03-15T17:32:14.611Z,1.75
2019-03-15T17:34:43.990Z,1.50
2019-03-15T17:37:13.614Z,1.87
2019-03-15T17:39:44.122Z,3.15
2019-03-15T17:42:13.655Z,5.75
2019-03-15T17:44:42.989Z,6.75
2019-03-15T17:47:12.354Z,7.20
2019-03-15T17:49:41.795Z,4.90
2019-03-15T17:52:11.138Z,3.33
2019-03-15T17:54:40.485Z,4.35
2019-03-15T17:57:09.888Z,4.12
2019-03-15T17:59:39.219Z,2.47
2019-03-15T18:02:08.633Z,3.25
2019-03-15T18:04:37.979Z,3.00
2019-03-15T18:07:07.523Z,3.12
2019-03-15T18:09:36.850Z,4.05
2019-03-15T18:12:06.183Z,3.02
2019-03-15T18:14:35.721Z,1.45
2019-03-15T18:17:05.045Z,2.00
2019-03-15T18:19:34.630Z,2.10
2019-03-15T18:22:03.977Z,2.55
2019-03-15T18:24:33.298Z,5.70
2019-03-15T18:27:02.886Z,9.80
2019-03-15T18:29:32.226Z,5.03
2019-03-15T18:32:01.582Z,3.50
2019-03-15T18:34:30.991Z,3.80
2019-03-15T18:37:00.320Z,3.72
2019-03-15T18:39:29.745Z,3.05
2019-03-15T18:41:59.100Z,2.60
2019-03-15T18:44:28.445Z,3.27
2019-03-15T18:46:57.834Z,2.98
2019-03-15T18:49:27.165Z,3.33
2019-03-15T18:51:57.010Z,2.52
2019-03-15T18:54:26.642Z,3.20
2019-03-15T18:56:56.194Z,2.37
2019-03-15T18:59:38.940Z,2.40
2019-03-15T19:01:56.906Z,7.87
2019-03-15T19:04:26.260Z,5.40
2019-03-15T19:06:55.602Z,14.65
2019-03-15T19:09:24.995Z,11.55
2019-03-15T19:11:54.369Z,6.12
2019-03-15T19:14:23.774Z,8.20
2019-03-15T19:16:53.106Z,4.10
2019-03-15T19:19:22.862Z,3.70
2019-03-15T19:21:52.286Z,3.75
2019-03-15T19:24:21.749Z,6.05
2019-03-15T19:26:51.086Z,6.83
2019-03-15T19:29:21.013Z,8.30
2019-03-15T19:31:50.374Z,7.90
2019-03-15T19:34:19.715Z,6.37
2019-03-15T19:36:49.312Z,6.35
2019-03-15T19:39:18.799Z,4.60
2019-03-15T19:41:48.467Z,5.00
2019-03-15T19:44:17.819Z,9.88
2019-03-15T19:46:47.212Z,5.92
2019-03-15T19:49:16.820Z,5.12
2019-03-15T19:51:46.190Z,2.60
2019-03-15T19:54:15.541Z,3.27
2019-03-15T19:56:44.944Z,3.92
2019-03-15T19:59:14.282Z,2.98
2019-03-15T20:01:43.629Z,18.17
2019-03-15T20:04:12.971Z,6.62
2019-03-15T20:06:42.321Z,6.10
2019-03-15T20:09:11.755Z,3.62
2019-03-15T20:11:41.159Z,3.90
2019-03-15T20:14:10.555Z,2.30
2019-03-15T20:16:39.882Z,2.75
2019-03-15T20:19:09.238Z,2.75
2019-03-15T20:21:38.630Z,1.70
2019-03-15T20:24:07.961Z,1.65
2019-03-15T20:26:37.315Z,2.72
2019-03-15T20:29:06.730Z,2.50
2019-03-15T20:31:36.072Z,2.27
2019-03-15T20:34:05.890Z,2.12
2019-03-15T20:36:35.242Z,4.03
2019-03-15T20:39:05.594Z,3.55
2019-03-15T20:41:34.981Z,3.50
2019-03-15T20:44:04.570Z,3.55
2019-03-15T20:46:35.956Z,2.08
2019-03-15T20:49:05.394Z,2.33
2019-03-15T20:51:34.735Z,2.98
2019-03-15T20:54:04.075Z,2.22
2019-03-15T20:56:33.476Z,2.40
2019-03-15T20:59:02.806Z,2.60
2019-03-15T21:01:32.153Z,3.52
2019-03-15T21:04:01.543Z,2.37
2019-03-15T21:06:30.949Z,2.98
2019-03-15T21:09:00.603Z,2.58
2019-03-15T21:11:29.934Z,2.20
2019-03-15T21:13:59.684Z,2.92
2019-03-15T21:16:29.058Z,2.10
2019-03-15T21:18:58.387Z,2.02
2019-03-15T21:21:27.742Z,2.83
2019-03-15T21:23:57.148Z,2.10
2019-03-15T21:26:26.731Z,2.20
2019-03-15T21:28:56.063Z,2.45
2019-03-15T21:31:25.413Z,2.33
2019-03-15T21:33:54.815Z,2.10
2019-03-15T21:36:24.145Z,2.20
2019-03-15T21:38:53.467Z,2.25
2019-03-15T21:41:22.802Z,2.00
2019-03-15T21:43:52.350Z,1.85
2019-03-15T21:46:21.675Z,1.70
2019-03-15T21:48:51.011Z,1.40
2019-03-15T21:51:20.357Z,1.98
2019-03-15T21:53:49.911Z,1.67
2019-03-15T21:56:19.339Z,1.62
2019-03-15T21:58:48.711Z,1.77
2019-03-15T22:01:18.107Z,1.77
2019-03-15T22:03:47.462Z,1.95
2019-03-15T22:06:16.859Z,2.02
2019-03-15T22:08:46.213Z,1.90
2019-03-15T22:11:21.216Z,2.10
2019-03-15T22:13:46.644Z,1.95
2019-03-15T22:16:16.003Z,1.82
2019-03-15T22:18:45.351Z,2.10
2019-03-15T22:21:14.985Z,1.75
2019-03-15T22:23:44.320Z,1.62
2019-03-15T22:26:14.014Z,3.05
2019-03-15T22:28:43.335Z,2.05
2019-03-15T22:31:16.906Z,2.40
2019-03-15T22:33:43.714Z,2.25
2019-03-15T22:36:13.042Z,2.80
2019-03-15T22:38:42.379Z,2.35
2019-03-15T22:41:11.706Z,3.70
2019-03-15T22:43:41.039Z,3.12
2019-03-15T22:46:10.371Z,2.60
2019-03-15T22:48:39.707Z,3.20
2019-03-15T22:51:09.043Z,3.90
2019-03-15T22:53:38.399Z,2.50
2019-03-15T22:56:07.734Z,2.70
2019-03-15T22:58:37.066Z,3.40
2019-03-15T23:01:07.402Z,3.02
2019-03-15T23:03:36.804Z,3.45
2019-03-15T23:06:06.531Z,3.90
2019-03-15T23:08:35.938Z,3.45
2019-03-15T23:11:05.519Z,3.35
2019-03-15T23:13:35.156Z,2.92
2019-03-15T23:16:04.515Z,3.70
2019-03-15T23:18:33.905Z,3.35
2019-03-15T23:21:03.509Z,3.40
2019-03-15T23:23:32.911Z,3.25
2019-03-15T23:26:02.315Z,3.83
2019-03-15T23:28:31.727Z,3.50
2019-03-15T23:31:01.055Z,2.83
2019-03-15T23:33:30.436Z,2.40
2019-03-15T23:36:00.024Z,2.83
2019-03-15T23:38:29.427Z,3.30
2019-03-15T23:40:58.980Z,3.10
2019-03-15T23:43:28.307Z,3.30
2019-03-15T23:45:57.634Z,4.12
2019-03-15T23:48:27.019Z,3.65
2019-03-15T23:50:56.430Z,4.30
2019-03-15T23:53:26.263Z,2.42
2019-03-15T23:55:55.604Z,2.47
2019-03-15T23:58:24.943Z,3.60
